DAL40 YSSY-KLAX
Flight info
| Callsign | DAL40 |
|---|---|
| Flight time | N/A |
| Altitude | 35000 |
| Route | NOBAR B580 IFFEY DCT 2940S15727E 2657S16142E 2617S16300E 2359S16710E 2200S17010E 1925S17344E 1533S17814E/N0494F370 1159S17824W 0915S17603W 0521S17246W 0500S17226W 0325S17058W 0023N16659W/N0487F390 0417N16253W 0715N15931W 0857N15726W 1202N15316W 1507N14921W 1705N14651W 2018N14212W/N0478F410 2256N13748W 2510N13346W 2814N12824W 3046N12406W DCT FOOTS DCT FICKY DCT ROSIN DCT SXC LEENA8 |
| Aircraft | A359/H-SDE2E3GHIJ3J4J5LM1ORWXY/LB1D1 |
Departure
| Time | 2026-04-26 04:40 |
|---|---|
| Airport | Sydney Kingsford Smith International Airport (YSSY) |
Arrival
| Time | N/A |
|---|---|
| Airport | Los Angeles International Airport (KLAX) |
| Time | Latitude | Longitude | Altitude | Speed | Heading |
|---|---|---|---|---|---|
| 2026-04-26 04:12 | -33.93832 | 151.16835 | 54 ft | 0 kts | 70° |
| 2026-04-26 04:24 | -33.93836 | 151.16823 | 25 ft | 3 kts | 70° |
| 2026-04-26 04:25 | -33.93842 | 151.16800 | 27 ft | 3 kts | 70° |
| 2026-04-26 04:25 | -33.93848 | 151.16781 | 26 ft | 1 kts | 70° |
| 2026-04-26 04:25 | -33.93853 | 151.16762 | 24 ft | 3 kts | 97° |
| 2026-04-26 04:25 | -33.93847 | 151.16745 | 25 ft | 3 kts | 153° |
| 2026-04-26 04:26 | -33.93829 | 151.16738 | 25 ft | 2 kts | 166° |
| 2026-04-26 04:26 | -33.93821 | 151.16735 | 26 ft | 0 kts | 164° |
| 2026-04-26 04:31 | -33.93853 | 151.16746 | 24 ft | 8 kts | 165° |
| 2026-04-26 04:31 | -33.93908 | 151.16763 | 27 ft | 10 kts | 165° |
| 2026-04-26 04:32 | -33.93979 | 151.16786 | 27 ft | 11 kts | 165° |
| 2026-04-26 04:32 | -33.94042 | 151.16825 | 27 ft | 9 kts | 122° |
| 2026-04-26 04:32 | -33.94046 | 151.16908 | 27 ft | 11 kts | 75° |
| 2026-04-26 04:32 | -33.94025 | 151.17000 | 27 ft | 11 kts | 75° |
| 2026-04-26 04:33 | -33.94003 | 151.17089 | 26 ft | 11 kts | 74° |
| 2026-04-26 04:33 | -33.93986 | 151.17179 | 29 ft | 10 kts | 90° |
| 2026-04-26 04:33 | -33.94023 | 151.17233 | 27 ft | 8 kts | 154° |
| 2026-04-26 04:33 | -33.94081 | 151.17251 | 28 ft | 10 kts | 166° |
| 2026-04-26 04:34 | -33.94179 | 151.17277 | 28 ft | 17 kts | 169° |
| 2026-04-26 04:34 | -33.94290 | 151.17305 | 30 ft | 16 kts | 168° |
| 2026-04-26 04:34 | -33.94390 | 151.17331 | 32 ft | 14 kts | 167° |
| 2026-04-26 04:34 | -33.94491 | 151.17358 | 32 ft | 17 kts | 167° |
| 2026-04-26 04:35 | -33.94613 | 151.17390 | 32 ft | 18 kts | 167° |
| 2026-04-26 04:35 | -33.94738 | 151.17425 | 31 ft | 19 kts | 167° |
| 2026-04-26 04:35 | -33.94877 | 151.17460 | 31 ft | 21 kts | 168° |
| 2026-04-26 04:35 | -33.95022 | 151.17496 | 26 ft | 21 kts | 168° |
| 2026-04-26 04:36 | -33.95165 | 151.17533 | 27 ft | 21 kts | 168° |
| 2026-04-26 04:36 | -33.95313 | 151.17570 | 27 ft | 21 kts | 168° |
| 2026-04-26 04:36 | -33.95453 | 151.17609 | 26 ft | 21 kts | 167° |
| 2026-04-26 04:36 | -33.95598 | 151.17646 | 28 ft | 20 kts | 168° |
| 2026-04-26 04:37 | -33.95730 | 151.17679 | 31 ft | 19 kts | 168° |
| 2026-04-26 04:37 | -33.95861 | 151.17714 | 29 ft | 20 kts | 168° |
| 2026-04-26 04:37 | -33.95994 | 151.17748 | 30 ft | 19 kts | 168° |
| 2026-04-26 04:37 | -33.96120 | 151.17780 | 30 ft | 18 kts | 168° |
| 2026-04-26 04:38 | -33.96249 | 151.17813 | 28 ft | 19 kts | 168° |
| 2026-04-26 04:38 | -33.96375 | 151.17846 | 29 ft | 17 kts | 165° |
| 2026-04-26 04:38 | -33.96435 | 151.17941 | 30 ft | 15 kts | 92° |
| 2026-04-26 04:38 | -33.96394 | 151.18033 | 30 ft | 12 kts | 24° |
| 2026-04-26 04:39 | -33.96307 | 151.18031 | 30 ft | 17 kts | 349° |
| 2026-04-26 04:39 | -33.96004 | 151.17956 | 30 ft | 70 kts | 348° |
| 2026-04-26 04:39 | -33.95370 | 151.17791 | 29 ft | 115 kts | 347° |
| 2026-04-26 04:39 | -33.94454 | 151.17553 | 31 ft | 153 kts | 348° |
| 2026-04-26 04:40 | -33.93393 | 151.17262 | 451 ft | 152 kts | 351° |
| 2026-04-26 04:40 | -33.92355 | 151.16977 | 802 ft | 153 kts | 349° |
| 2026-04-26 04:40 | -33.91321 | 151.16694 | 1244 ft | 152 kts | 347° |
| 2026-04-26 04:40 | -33.90270 | 151.16333 | 1395 ft | 164 kts | 346° |
| 2026-04-26 04:41 | -33.89145 | 151.15952 | 1567 ft | 172 kts | 345° |
| 2026-04-26 04:41 | -33.88158 | 151.15040 | 1683 ft | 189 kts | 312° |
| 2026-04-26 04:41 | -33.87309 | 151.13763 | 1831 ft | 203 kts | 311° |
| 2026-04-26 04:41 | -33.86382 | 151.12397 | 1979 ft | 219 kts | 312° |
| 2026-04-26 04:42 | -33.85353 | 151.10961 | 2168 ft | 234 kts | 315° |
| 2026-04-26 04:42 | -33.84234 | 151.09456 | 2417 ft | 247 kts | 315° |
| 2026-04-26 04:42 | -33.83055 | 151.07911 | 2871 ft | 253 kts | 316° |
| 2026-04-26 04:42 | -33.81607 | 151.06736 | 3346 ft | 252 kts | 342° |
| 2026-04-26 04:43 | -33.79875 | 151.06546 | 3827 ft | 253 kts | 11° |
| 2026-04-26 04:43 | -33.78276 | 151.07401 | 4328 ft | 256 kts | 38° |
| 2026-04-26 04:43 | -33.77192 | 151.09108 | 4819 ft | 262 kts | 66° |
| 2026-04-26 04:43 | -33.76765 | 151.11247 | 5327 ft | 266 kts | 81° |
| 2026-04-26 04:44 | -33.76541 | 151.13440 | 5794 ft | 269 kts | 83° |
| 2026-04-26 04:44 | -33.76334 | 151.15678 | 6294 ft | 270 kts | 83° |
| 2026-04-26 04:44 | -33.76109 | 151.17933 | 6781 ft | 272 kts | 83° |
| 2026-04-26 04:44 | -33.75870 | 151.20206 | 7213 ft | 275 kts | 83° |
| 2026-04-26 04:45 | -33.75626 | 151.22491 | 7704 ft | 276 kts | 83° |
| 2026-04-26 04:45 | -33.75380 | 151.24788 | 8169 ft | 279 kts | 83° |
| 2026-04-26 04:45 | -33.75183 | 151.27116 | 8640 ft | 281 kts | 89° |
| 2026-04-26 04:45 | -33.75218 | 151.29471 | 9149 ft | 282 kts | 92° |
| 2026-04-26 04:46 | -33.75336 | 151.31838 | 9631 ft | 285 kts | 94° |
| 2026-04-26 04:46 | -33.75503 | 151.34218 | 10100 ft | 288 kts | 95° |
| 2026-04-26 04:46 | -33.75701 | 151.36657 | 10335 ft | 299 kts | 96° |
| 2026-04-26 04:46 | -33.75915 | 151.39201 | 10524 ft | 311 kts | 96° |
| 2026-04-26 04:47 | -33.76136 | 151.41830 | 10722 ft | 322 kts | 96° |
| 2026-04-26 04:47 | -33.76357 | 151.44527 | 10907 ft | 334 kts | 95° |
| 2026-04-26 04:47 | -33.76584 | 151.47349 | 11101 ft | 345 kts | 95° |
| 2026-04-26 04:47 | -33.76813 | 151.50260 | 11287 ft | 355 kts | 95° |
| 2026-04-26 04:48 | -33.77283 | 151.56326 | 11732 ft | 372 kts | 95° |
| 2026-04-26 04:48 | -33.77522 | 151.59435 | 12119 ft | 375 kts | 95° |
| 2026-04-26 04:48 | -33.77761 | 151.62561 | 12524 ft | 377 kts | 95° |
| 2026-04-26 04:49 | -33.78003 | 151.65714 | 12857 ft | 381 kts | 95° |
| 2026-04-26 04:49 | -33.78134 | 151.68910 | 13238 ft | 383 kts | 89° |
| 2026-04-26 04:49 | -33.77880 | 151.72100 | 13644 ft | 385 kts | 79° |
| 2026-04-26 04:49 | -33.77129 | 151.75199 | 14007 ft | 388 kts | 67° |
| 2026-04-26 04:50 | -33.75894 | 151.78089 | 14352 ft | 390 kts | 58° |
| 2026-04-26 04:50 | -33.74358 | 151.80774 | 14727 ft | 391 kts | 53° |
| 2026-04-26 04:50 | -33.72663 | 151.83331 | 15097 ft | 392 kts | 50° |
| 2026-04-26 04:50 | -33.70894 | 151.85841 | 15480 ft | 394 kts | 50° |
| 2026-04-26 04:51 | -33.69113 | 151.88338 | 15853 ft | 395 kts | 50° |
| 2026-04-26 04:51 | -33.67331 | 151.90859 | 16216 ft | 396 kts | 50° |
| 2026-04-26 04:51 | -33.65562 | 151.93403 | 16578 ft | 398 kts | 51° |
| 2026-04-26 04:51 | -33.63796 | 151.95975 | 16953 ft | 399 kts | 51° |
| 2026-04-26 04:52 | -33.62033 | 151.98564 | 17300 ft | 401 kts | 51° |
| 2026-04-26 04:52 | -33.60268 | 152.01168 | 17634 ft | 404 kts | 52° |
| 2026-04-26 04:52 | -33.58495 | 152.03788 | 17976 ft | 406 kts | 52° |
| 2026-04-26 04:52 | -33.56708 | 152.06425 | 18325 ft | 407 kts | 52° |
| 2026-04-26 04:53 | -33.54912 | 152.09072 | 18639 ft | 409 kts | 52° |
| 2026-04-26 04:53 | -33.53110 | 152.11726 | 18942 ft | 411 kts | 52° |
| 2026-04-26 04:53 | -33.51321 | 152.14356 | 19236 ft | 413 kts | 52° |
| 2026-04-26 04:53 | -33.49504 | 152.17025 | 19546 ft | 414 kts | 51° |
| 2026-04-26 04:54 | -33.47674 | 152.19711 | 19854 ft | 416 kts | 51° |
| 2026-04-26 04:54 | -33.45840 | 152.22399 | 20159 ft | 418 kts | 51° |
| 2026-04-26 04:54 | -33.43994 | 152.25105 | 20460 ft | 419 kts | 52° |
| 2026-04-26 04:54 | -33.42144 | 152.27814 | 20758 ft | 421 kts | 52° |
| 2026-04-26 04:55 | -33.40286 | 152.30533 | 21057 ft | 423 kts | 52° |
| 2026-04-26 04:55 | -33.38418 | 152.33263 | 21356 ft | 425 kts | 52° |
| 2026-04-26 04:55 | -33.36543 | 152.36003 | 21653 ft | 426 kts | 52° |
| 2026-04-26 04:55 | -33.34660 | 152.38752 | 21951 ft | 428 kts | 52° |
| 2026-04-26 04:56 | -33.33410 | 152.40576 | 22151 ft | 429 kts | 52° |
| 2026-04-26 04:56 | -33.31511 | 152.43345 | 22440 ft | 431 kts | 52° |
| 2026-04-26 04:56 | -33.29603 | 152.46126 | 22734 ft | 433 kts | 52° |
| 2026-04-26 04:56 | -33.27688 | 152.48913 | 23032 ft | 435 kts | 52° |
| 2026-04-26 04:57 | -33.25766 | 152.51710 | 23330 ft | 436 kts | 52° |
| 2026-04-26 04:57 | -33.23834 | 152.54518 | 23604 ft | 439 kts | 52° |
| 2026-04-26 04:57 | -33.21890 | 152.57342 | 23867 ft | 441 kts | 52° |
| 2026-04-26 04:57 | -33.19939 | 152.60174 | 24103 ft | 443 kts | 52° |
| 2026-04-26 04:58 | -33.17978 | 152.63018 | 24341 ft | 444 kts | 52° |
| 2026-04-26 04:58 | -33.16010 | 152.65870 | 24578 ft | 446 kts | 52° |
| 2026-04-26 04:58 | -33.14030 | 152.68738 | 24813 ft | 448 kts | 52° |
| 2026-04-26 04:58 | -33.12071 | 152.71572 | 25046 ft | 449 kts | 52° |
| 2026-04-26 04:59 | -33.10078 | 152.74453 | 25289 ft | 451 kts | 52° |
| 2026-04-26 04:59 | -33.08076 | 152.77346 | 25516 ft | 453 kts | 52° |
| 2026-04-26 04:59 | -33.06064 | 152.80249 | 25737 ft | 455 kts | 52° |
| 2026-04-26 04:59 | -33.04045 | 152.83162 | 25994 ft | 457 kts | 52° |
| 2026-04-26 05:00 | -33.02013 | 152.86090 | 26249 ft | 458 kts | 52° |
| 2026-04-26 05:00 | -32.99973 | 152.89029 | 26508 ft | 460 kts | 52° |
| 2026-04-26 05:00 | -32.97928 | 152.91971 | 26751 ft | 462 kts | 52° |
| 2026-04-26 05:00 | -32.95873 | 152.94926 | 26992 ft | 463 kts | 52° |
| 2026-04-26 05:01 | -32.93813 | 152.97886 | 27234 ft | 465 kts | 52° |
| 2026-04-26 05:01 | -32.91741 | 153.00861 | 27463 ft | 467 kts | 52° |
| 2026-04-26 05:01 | -32.89661 | 153.03844 | 27697 ft | 469 kts | 52° |
| 2026-04-26 05:01 | -32.87602 | 153.06795 | 27930 ft | 471 kts | 52° |
| 2026-04-26 05:02 | -32.85504 | 153.09800 | 28171 ft | 472 kts | 52° |
| 2026-04-26 05:02 | -32.83393 | 153.12819 | 28385 ft | 474 kts | 52° |
| 2026-04-26 05:02 | -32.81286 | 153.15831 | 28670 ft | 474 kts | 52° |
| 2026-04-26 05:02 | -32.79172 | 153.18852 | 28915 ft | 476 kts | 52° |
| 2026-04-26 05:03 | -32.77050 | 153.21880 | 29100 ft | 478 kts | 52° |
| 2026-04-26 05:03 | -32.74918 | 153.24921 | 29309 ft | 480 kts | 52° |
| 2026-04-26 05:03 | -32.72778 | 153.27970 | 29484 ft | 482 kts | 52° |
| 2026-04-26 05:03 | -32.70627 | 153.31033 | 29654 ft | 484 kts | 52° |
| 2026-04-26 05:04 | -32.68468 | 153.34105 | 29848 ft | 485 kts | 52° |
| 2026-04-26 05:04 | -32.66298 | 153.37189 | 30056 ft | 487 kts | 52° |
| 2026-04-26 05:04 | -32.64125 | 153.40276 | 30217 ft | 488 kts | 52° |
| 2026-04-26 05:04 | -32.61945 | 153.43368 | 30384 ft | 489 kts | 52° |
| 2026-04-26 05:05 | -32.59759 | 153.46468 | 30613 ft | 489 kts | 52° |
| 2026-04-26 05:05 | -32.57578 | 153.49557 | 30772 ft | 490 kts | 52° |
| 2026-04-26 05:05 | -32.55416 | 153.52618 | 30895 ft | 491 kts | 52° |
| 2026-04-26 05:05 | -32.53218 | 153.55727 | 31021 ft | 493 kts | 52° |
| 2026-04-26 05:06 | -32.51011 | 153.58846 | 31216 ft | 493 kts | 52° |
| 2026-04-26 05:06 | -32.48806 | 153.61958 | 31397 ft | 493 kts | 52° |
| 2026-04-26 05:06 | -32.46597 | 153.65074 | 31573 ft | 493 kts | 52° |
| 2026-04-26 05:06 | -32.44388 | 153.68188 | 31742 ft | 493 kts | 52° |
| 2026-04-26 05:07 | -32.42180 | 153.71298 | 31916 ft | 493 kts | 52° |
| 2026-04-26 05:07 | -32.39966 | 153.74413 | 32085 ft | 493 kts | 52° |
| 2026-04-26 05:07 | -32.37761 | 153.77513 | 32347 ft | 491 kts | 52° |
| 2026-04-26 05:07 | -32.35560 | 153.80605 | 32503 ft | 492 kts | 52° |
| 2026-04-26 05:08 | -32.31169 | 153.86768 | 32747 ft | 493 kts | 52° |
| 2026-04-26 05:08 | -32.28956 | 153.89869 | 32906 ft | 493 kts | 52° |
| 2026-04-26 05:08 | -32.26748 | 153.92962 | 33045 ft | 493 kts | 52° |
| 2026-04-26 05:09 | -32.24530 | 153.96064 | 33191 ft | 494 kts | 52° |
| 2026-04-26 05:09 | -32.22312 | 153.99164 | 33337 ft | 494 kts | 52° |
| 2026-04-26 05:09 | -32.20096 | 154.02259 | 33473 ft | 494 kts | 52° |
| 2026-04-26 05:09 | -32.17871 | 154.05364 | 33618 ft | 495 kts | 52° |
| 2026-04-26 05:10 | -32.15652 | 154.08459 | 33773 ft | 494 kts | 52° |
| 2026-04-26 05:10 | -32.13432 | 154.11553 | 33919 ft | 494 kts | 52° |
| 2026-04-26 05:10 | -32.11208 | 154.14649 | 34051 ft | 494 kts | 52° |
| 2026-04-26 05:10 | -32.08986 | 154.17740 | 34169 ft | 494 kts | 52° |
| 2026-04-26 05:11 | -32.06793 | 154.20788 | 34274 ft | 494 kts | 52° |
| 2026-04-26 05:11 | -32.04566 | 154.23881 | 34396 ft | 494 kts | 52° |
| 2026-04-26 05:11 | -32.00114 | 154.30056 | 34592 ft | 494 kts | 52° |
| 2026-04-26 05:12 | -31.95641 | 154.36252 | 34662 ft | 498 kts | 52° |
| 2026-04-26 05:12 | -31.93411 | 154.39356 | 34881 ft | 494 kts | 52° |
| 2026-04-26 05:12 | -31.91204 | 154.42447 | 35044 ft | 493 kts | 52° |
| 2026-04-26 05:13 | -31.86789 | 154.48648 | 35164 ft | 495 kts | 52° |
| 2026-04-26 05:13 | -31.82334 | 154.54893 | 35159 ft | 499 kts | 52° |
| 2026-04-26 05:14 | -31.77856 | 154.61148 | 35255 ft | 501 kts | 52° |